createdAt,value
2023-09-29T00:00:37.898Z,5.00
2023-09-29T00:01:41.229Z,4.75
2023-09-29T00:02:46.872Z,5.20
2023-09-29T00:03:50.477Z,5.22
2023-09-29T00:04:54.085Z,5.00
2023-09-29T00:05:57.320Z,5.30
2023-09-29T00:07:01.043Z,4.80
2023-09-29T00:08:04.610Z,4.87
2023-09-29T00:09:13.613Z,4.65
2023-09-29T00:10:18.598Z,5.05
2023-09-29T00:11:22.331Z,5.30
2023-09-29T00:12:25.577Z,4.70
2023-09-29T00:13:28.796Z,4.78
2023-09-29T00:14:31.755Z,4.72
2023-09-29T00:15:35.112Z,5.03
2023-09-29T00:16:38.354Z,4.75
2023-09-29T00:17:41.364Z,5.03
2023-09-29T00:18:44.846Z,5.20
2023-09-29T00:19:48.063Z,5.10
2023-09-29T00:20:51.169Z,4.40
2023-09-29T00:21:54.523Z,5.05
2023-09-29T00:23:01.016Z,4.78
2023-09-29T00:24:05.932Z,4.93
2023-09-29T00:25:09.395Z,5.00
2023-09-29T00:26:12.566Z,4.80
2023-09-29T00:27:16.066Z,4.65
2023-09-29T00:28:19.498Z,4.70
2023-09-29T00:29:22.437Z,4.97
2023-09-29T00:30:25.887Z,5.05
2023-09-29T00:31:29.046Z,4.82
2023-09-29T00:32:32.948Z,4.75
2023-09-29T00:33:36.890Z,5.22
2023-09-29T00:34:40.176Z,5.22
2023-09-29T00:35:43.391Z,4.50
2023-09-29T00:36:48.971Z,5.00
2023-09-29T00:37:52.877Z,4.68
2023-09-29T00:38:56.196Z,4.75
2023-09-29T00:39:59.528Z,4.97
2023-09-29T00:41:03.179Z,4.60
2023-09-29T00:42:08.075Z,4.85
2023-09-29T00:43:11.726Z,4.95
2023-09-29T00:44:15.169Z,5.10
2023-09-29T00:45:21.468Z,5.22
2023-09-29T00:46:26.538Z,5.18
2023-09-29T00:47:30.543Z,4.68
2023-09-29T00:48:34.866Z,4.68
2023-09-29T00:49:38.363Z,4.90
2023-09-29T00:50:42.377Z,4.82
2023-09-29T00:51:45.443Z,4.72
2023-09-29T00:52:50.909Z,4.90
2023-09-29T00:53:54.192Z,4.70
2023-09-29T00:54:57.837Z,5.00
2023-09-29T00:56:02.044Z,4.80
2023-09-29T00:57:07.305Z,5.15
2023-09-29T00:58:10.702Z,5.03
2023-09-29T00:59:14.110Z,4.80
2023-09-29T01:00:31.674Z,4.90
2023-09-29T01:01:38.403Z,5.05
2023-09-29T01:02:45.208Z,5.10
2023-09-29T01:03:48.696Z,4.95
2023-09-29T01:04:51.973Z,4.65
2023-09-29T01:05:55.659Z,4.47
2023-09-29T01:06:59.058Z,4.93
2023-09-29T01:08:03.236Z,4.80
2023-09-29T01:09:07.833Z,4.85
2023-09-29T01:10:19.497Z,5.07
2023-09-29T01:11:22.997Z,4.72
2023-09-29T01:12:29.307Z,5.00
2023-09-29T01:13:32.941Z,4.80
2023-09-29T01:14:36.654Z,4.93
2023-09-29T01:15:41.042Z,5.05
2023-09-29T01:16:44.667Z,4.57
2023-09-29T01:17:48.516Z,4.75
2023-09-29T01:18:52.034Z,4.80
2023-09-29T01:19:55.653Z,4.87
2023-09-29T01:20:58.561Z,4.72
2023-09-29T01:22:01.961Z,4.62
2023-09-29T01:23:06.017Z,4.87
2023-09-29T01:24:09.408Z,5.03
2023-09-29T01:25:12.720Z,4.80
2023-09-29T01:26:15.989Z,4.85
2023-09-29T01:27:18.893Z,4.93
2023-09-29T01:28:22.024Z,5.22
2023-09-29T01:29:25.187Z,4.95
2023-09-29T01:30:28.805Z,4.53
2023-09-29T01:31:35.446Z,5.00
2023-09-29T01:32:39.446Z,4.82
2023-09-29T01:33:43.046Z,4.97
2023-09-29T01:34:46.546Z,5.37
2023-09-29T01:35:51.558Z,4.93
2023-09-29T01:36:59.731Z,5.05
2023-09-29T01:38:02.948Z,4.85
2023-09-29T01:39:07.271Z,4.90
2023-09-29T01:40:11.463Z,5.15
2023-09-29T01:41:15.351Z,5.20
2023-09-29T01:42:19.395Z,5.28
2023-09-29T01:43:24.592Z,5.70
2023-09-29T01:44:27.640Z,4.65
2023-09-29T01:45:33.933Z,5.10
2023-09-29T01:46:37.117Z,5.32
2023-09-29T01:47:40.865Z,4.93
2023-09-29T01:48:44.213Z,4.80
2023-09-29T01:49:49.580Z,4.90
2023-09-29T01:50:52.475Z,4.82
2023-09-29T01:51:55.498Z,5.05
2023-09-29T01:52:58.875Z,5.35
2023-09-29T01:54:02.281Z,4.93
2023-09-29T01:55:09.017Z,5.07
2023-09-29T01:56:12.129Z,5.07
2023-09-29T01:57:15.258Z,4.95
2023-09-29T01:58:19.039Z,5.22
2023-09-29T01:59:23.553Z,5.57
2023-09-29T02:00:30.442Z,5.18
2023-09-29T02:01:38.342Z,5.15
2023-09-29T02:02:41.768Z,5.40
2023-09-29T02:03:46.593Z,4.93
2023-09-29T02:04:50.040Z,5.47
2023-09-29T02:05:53.703Z,5.15
2023-09-29T02:06:56.896Z,5.70
2023-09-29T02:08:00.460Z,5.07
2023-09-29T02:09:08.897Z,5.30
2023-09-29T02:10:12.597Z,5.70
2023-09-29T02:11:15.862Z,5.45
2023-09-29T02:12:19.380Z,4.93
2023-09-29T02:13:22.657Z,4.70
2023-09-29T02:14:25.949Z,5.68
2023-09-29T02:15:35.755Z,4.80
2023-09-29T02:16:39.125Z,5.40
2023-09-29T02:17:42.445Z,5.10
2023-09-29T02:18:48.381Z,5.18
2023-09-29T02:19:54.428Z,5.30
2023-09-29T02:20:57.399Z,5.35
2023-09-29T02:22:00.910Z,5.20
2023-09-29T02:23:05.962Z,4.90
2023-09-29T02:24:09.628Z,5.15
2023-09-29T02:25:16.036Z,4.97
2023-09-29T02:26:19.022Z,5.10
2023-09-29T02:27:23.204Z,5.15
2023-09-29T02:28:31.968Z,5.53
2023-09-29T02:29:34.982Z,5.07
2023-09-29T02:30:38.433Z,5.03
2023-09-29T02:31:42.200Z,5.37
2023-09-29T02:32:46.218Z,5.70
2023-09-29T02:33:52.019Z,5.15
2023-09-29T02:34:56.616Z,5.37
2023-09-29T02:35:59.839Z,5.85
2023-09-29T02:37:03.115Z,5.18
2023-09-29T02:38:06.625Z,5.37
2023-09-29T02:39:10.401Z,5.43
2023-09-29T02:40:14.291Z,5.43
2023-09-29T02:41:17.441Z,4.97
2023-09-29T02:42:20.723Z,5.20
2023-09-29T02:43:23.962Z,5.70
2023-09-29T02:44:29.529Z,5.40
2023-09-29T02:45:32.846Z,5.00
2023-09-29T02:46:36.495Z,4.78
2023-09-29T02:47:43.811Z,5.35
2023-09-29T02:48:47.075Z,5.10
2023-09-29T02:49:50.414Z,4.85
2023-09-29T02:50:53.252Z,5.15
2023-09-29T02:51:56.427Z,5.18
2023-09-29T02:52:59.609Z,5.55
2023-09-29T02:54:04.846Z,4.97
2023-09-29T02:55:14.798Z,5.40
2023-09-29T02:56:18.463Z,5.62
2023-09-29T02:57:22.745Z,5.87
2023-09-29T02:58:25.991Z,5.70
2023-09-29T02:59:28.924Z,5.68
2023-09-29T03:00:33.029Z,5.35
2023-09-29T03:01:36.093Z,5.70
2023-09-29T03:02:38.986Z,5.35
2023-09-29T03:03:44.698Z,5.00
2023-09-29T03:04:48.452Z,5.55
2023-09-29T03:05:51.332Z,5.10
2023-09-29T03:06:54.247Z,5.32
2023-09-29T03:07:57.812Z,4.90
2023-09-29T03:09:00.789Z,5.12
2023-09-29T03:10:06.765Z,5.12
2023-09-29T03:11:10.830Z,5.85
2023-09-29T03:12:14.620Z,5.30
2023-09-29T03:13:17.852Z,5.35
2023-09-29T03:14:20.821Z,5.40
2023-09-29T03:15:24.575Z,5.40
2023-09-29T03:16:27.605Z,5.60
2023-09-29T03:17:31.046Z,5.40
2023-09-29T03:18:36.418Z,5.18
2023-09-29T03:19:39.793Z,5.47
2023-09-29T03:20:43.197Z,5.12
2023-09-29T03:21:46.068Z,5.37
2023-09-29T03:22:49.637Z,5.22
2023-09-29T03:23:52.974Z,5.37
2023-09-29T03:24:55.975Z,5.30
2023-09-29T03:25:59.377Z,5.68
2023-09-29T03:27:02.660Z,5.45
2023-09-29T03:28:06.218Z,5.55
2023-09-29T03:29:09.557Z,5.28
2023-09-29T03:30:13.196Z,5.15
2023-09-29T03:31:16.564Z,5.40
2023-09-29T03:32:19.417Z,5.53
2023-09-29T03:33:22.926Z,5.40
2023-09-29T03:34:26.039Z,5.60
2023-09-29T03:35:29.428Z,5.32
2023-09-29T03:36:32.748Z,5.85
2023-09-29T03:37:41.068Z,5.12
2023-09-29T03:38:44.475Z,5.37
2023-09-29T03:39:49.675Z,5.03
2023-09-29T03:40:54.024Z,5.50
2023-09-29T03:41:57.313Z,5.22
2023-09-29T03:43:01.206Z,5.37
2023-09-29T03:44:04.831Z,5.25
2023-09-29T03:45:10.202Z,5.70
2023-09-29T03:46:22.997Z,5.40
2023-09-29T03:47:25.987Z,5.50
2023-09-29T03:48:29.973Z,5.20
2023-09-29T03:49:33.277Z,4.93
2023-09-29T03:50:36.799Z,6.00
2023-09-29T03:51:40.120Z,5.20
2023-09-29T03:52:44.205Z,4.90
2023-09-29T03:53:47.647Z,5.10
2023-09-29T03:54:50.615Z,5.12
2023-09-29T03:55:53.706Z,5.40
2023-09-29T03:56:56.645Z,5.60
2023-09-29T03:57:59.908Z,5.15
2023-09-29T03:59:03.015Z,4.95
2023-09-29T04:00:13.789Z,5.20
2023-09-29T04:01:17.617Z,5.25
2023-09-29T04:02:21.938Z,5.30
2023-09-29T04:03:27.299Z,5.65
2023-09-29T04:04:30.484Z,5.62
2023-09-29T04:05:33.813Z,5.20
2023-09-29T04:06:37.632Z,5.47
2023-09-29T04:07:41.995Z,5.70
2023-09-29T04:08:45.645Z,5.37
2023-09-29T04:09:48.932Z,5.40
2023-09-29T04:10:52.069Z,5.00
2023-09-29T04:11:55.019Z,5.30
2023-09-29T04:12:59.036Z,5.53
2023-09-29T04:14:02.218Z,5.28
2023-09-29T04:15:06.120Z,5.20
2023-09-29T04:16:09.502Z,5.32
2023-09-29T04:17:14.548Z,5.55
2023-09-29T04:18:17.869Z,5.30
2023-09-29T04:19:21.415Z,5.10
2023-09-29T04:20:24.347Z,5.20
2023-09-29T04:21:27.692Z,5.30
2023-09-29T04:22:31.385Z,5.00
2023-09-29T04:23:34.662Z,5.57
2023-09-29T04:24:38.070Z,5.62
2023-09-29T04:25:41.218Z,5.70
2023-09-29T04:26:44.634Z,5.80
2023-09-29T04:27:47.891Z,5.30
2023-09-29T04:28:52.264Z,5.55
2023-09-29T04:29:55.602Z,5.45
2023-09-29T04:30:58.996Z,5.53
2023-09-29T04:32:02.145Z,5.70
2023-09-29T04:33:05.828Z,5.37
2023-09-29T04:34:08.739Z,5.50
2023-09-29T04:35:12.086Z,5.35
2023-09-29T04:36:15.327Z,5.60
2023-09-29T04:37:18.706Z,5.45
2023-09-29T04:38:22.530Z,5.40
2023-09-29T04:39:25.723Z,5.43
2023-09-29T04:40:28.681Z,5.20
2023-09-29T04:41:32.026Z,5.18
2023-09-29T04:42:35.642Z,5.12
2023-09-29T04:43:38.853Z,5.05
2023-09-29T04:44:42.248Z,5.80
2023-09-29T04:45:45.180Z,5.47
2023-09-29T04:46:48.388Z,5.53
2023-09-29T04:47:51.349Z,4.90
2023-09-29T04:48:54.935Z,6.15
2023-09-29T04:49:58.421Z,5.03
2023-09-29T04:51:01.839Z,5.68
2023-09-29T04:52:05.213Z,5.35
2023-09-29T04:53:08.133Z,5.55
2023-09-29T04:54:11.696Z,5.37
2023-09-29T04:55:15.167Z,5.72
2023-09-29T04:56:18.257Z,5.12
2023-09-29T04:57:21.540Z,5.45
2023-09-29T04:58:24.794Z,5.82
2023-09-29T04:59:27.990Z,5.65
2023-09-29T05:00:32.838Z,5.70
2023-09-29T05:01:38.030Z,5.20
2023-09-29T05:02:41.177Z,5.35
2023-09-29T05:03:44.443Z,5.30
2023-09-29T05:04:47.520Z,5.43
2023-09-29T05:05:50.892Z,5.10
2023-09-29T05:06:54.088Z,5.65
2023-09-29T05:07:57.589Z,5.10
2023-09-29T05:09:01.170Z,5.45
2023-09-29T05:10:05.791Z,5.07
2023-09-29T05:11:09.077Z,5.43
2023-09-29T05:12:12.599Z,5.32
2023-09-29T05:13:17.073Z,5.50
2023-09-29T05:14:20.265Z,5.47
2023-09-29T05:15:23.892Z,5.85
2023-09-29T05:16:27.176Z,5.45
2023-09-29T05:17:37.235Z,5.60
2023-09-29T05:18:55.345Z,4.90
2023-09-29T05:19:59.277Z,5.45
2023-09-29T05:21:02.567Z,4.93
2023-09-29T05:22:05.626Z,5.05
2023-09-29T05:23:08.664Z,5.55
2023-09-29T05:24:11.671Z,5.20
2023-09-29T05:25:14.743Z,5.25
2023-09-29T05:26:17.679Z,5.40
2023-09-29T05:27:21.618Z,5.25
2023-09-29T05:28:24.846Z,5.55
2023-09-29T05:29:28.044Z,5.62
2023-09-29T05:30:31.340Z,5.18
2023-09-29T05:31:34.921Z,5.45
2023-09-29T05:32:38.245Z,5.55
2023-09-29T05:33:41.604Z,5.37
2023-09-29T05:34:44.952Z,5.12
2023-09-29T05:35:48.017Z,5.18
2023-09-29T05:36:51.229Z,5.18
2023-09-29T05:37:54.231Z,5.75
2023-09-29T05:38:57.678Z,5.30
2023-09-29T05:40:04.946Z,5.60
2023-09-29T05:41:08.250Z,5.40
2023-09-29T05:42:12.839Z,5.07
2023-09-29T05:43:17.486Z,6.15
2023-09-29T05:44:20.913Z,5.30
2023-09-29T05:45:24.338Z,5.25
2023-09-29T05:46:27.734Z,5.15
2023-09-29T05:47:31.109Z,5.57
2023-09-29T05:48:34.544Z,5.60
2023-09-29T05:49:37.864Z,5.30
2023-09-29T05:50:42.132Z,5.15
2023-09-29T05:51:45.169Z,5.72
2023-09-29T05:53:07.404Z,5.57
2023-09-29T05:54:12.790Z,5.55
2023-09-29T05:55:16.736Z,5.60
2023-09-29T05:56:19.924Z,5.22
2023-09-29T05:57:23.303Z,5.50
2023-09-29T05:58:26.737Z,5.70
2023-09-29T05:59:30.773Z,5.28
2023-09-29T06:00:34.662Z,5.60
2023-09-29T06:01:37.955Z,5.40
2023-09-29T06:02:42.056Z,5.70
2023-09-29T06:03:45.973Z,5.53
2023-09-29T06:04:49.332Z,5.97
2023-09-29T06:05:52.628Z,5.28
2023-09-29T06:06:55.643Z,6.10
2023-09-29T06:07:59.362Z,5.22
2023-09-29T06:09:02.889Z,5.40
2023-09-29T06:10:07.548Z,5.53
2023-09-29T06:11:10.354Z,5.28
2023-09-29T06:12:13.889Z,5.50
2023-09-29T06:13:17.075Z,5.62
2023-09-29T06:14:19.969Z,5.68
2023-09-29T06:15:23.348Z,4.80
2023-09-29T06:16:26.654Z,5.35
2023-09-29T06:17:31.420Z,5.47
2023-09-29T06:18:34.699Z,5.18
2023-09-29T06:19:37.977Z,5.18
2023-09-29T06:20:41.201Z,5.20
2023-09-29T06:21:45.765Z,5.00
2023-09-29T06:22:48.624Z,5.30
2023-09-29T06:23:51.726Z,5.85
2023-09-29T06:24:55.171Z,5.18
2023-09-29T06:26:02.044Z,5.32
2023-09-29T06:27:06.049Z,5.43
2023-09-29T06:28:09.126Z,4.87
2023-09-29T06:29:12.317Z,5.20
2023-09-29T06:30:15.268Z,5.25
2023-09-29T06:31:18.813Z,5.60
2023-09-29T06:32:22.890Z,5.22
2023-09-29T06:33:29.544Z,5.37
2023-09-29T06:34:32.874Z,5.53
2023-09-29T06:35:36.420Z,5.10
2023-09-29T06:36:40.105Z,5.43
2023-09-29T06:37:43.554Z,5.78
2023-09-29T06:38:46.518Z,6.03
2023-09-29T06:39:49.951Z,5.50
2023-09-29T06:40:53.242Z,5.43
2023-09-29T06:41:56.171Z,5.30
2023-09-29T06:42:59.393Z,5.68
2023-09-29T06:44:02.354Z,5.72
2023-09-29T06:45:09.129Z,5.25
2023-09-29T06:46:12.102Z,5.10
2023-09-29T06:47:15.382Z,5.28
2023-09-29T06:48:20.375Z,5.30
2023-09-29T06:49:24.006Z,5.18
2023-09-29T06:50:27.640Z,5.40
2023-09-29T06:51:31.183Z,5.60
2023-09-29T06:52:34.157Z,5.40
2023-09-29T06:53:37.485Z,5.22
2023-09-29T06:54:40.443Z,5.37
2023-09-29T06:55:43.336Z,5.18
2023-09-29T06:56:47.975Z,5.50
2023-09-29T06:57:51.394Z,5.20
2023-09-29T06:58:56.267Z,5.37
2023-09-29T06:59:59.178Z,5.37
2023-09-29T07:01:03.269Z,5.60
2023-09-29T07:02:07.048Z,5.43
2023-09-29T07:03:14.313Z,5.97
2023-09-29T07:04:18.174Z,5.72
2023-09-29T07:05:21.935Z,6.03
2023-09-29T07:06:26.057Z,5.80
2023-09-29T07:07:28.991Z,5.72
2023-09-29T07:08:32.226Z,5.22
2023-09-29T07:09:35.253Z,5.68
2023-09-29T07:10:38.166Z,5.40
2023-09-29T07:11:43.370Z,5.78
2023-09-29T07:12:47.703Z,5.57
2023-09-29T07:13:50.982Z,5.78
2023-09-29T07:14:54.000Z,5.72
2023-09-29T07:15:57.346Z,5.40
2023-09-29T07:17:00.729Z,5.70
2023-09-29T07:18:04.199Z,5.78
2023-09-29T07:19:07.354Z,6.20
2023-09-29T07:20:11.107Z,5.78
2023-09-29T07:21:15.522Z,5.60
2023-09-29T07:22:19.097Z,5.53
2023-09-29T07:23:25.630Z,5.70
2023-09-29T07:24:28.965Z,5.45
2023-09-29T07:25:32.191Z,5.28
2023-09-29T07:26:35.491Z,5.50
2023-09-29T07:27:40.867Z,5.53
2023-09-29T07:28:44.194Z,5.40
2023-09-29T07:29:48.598Z,5.60
2023-09-29T07:30:53.496Z,5.30
2023-09-29T07:31:56.613Z,5.60
2023-09-29T07:32:59.661Z,5.62
2023-09-29T07:34:02.822Z,6.03
2023-09-29T07:35:08.780Z,5.93
2023-09-29T07:36:12.032Z,6.32
2023-09-29T07:37:15.427Z,5.28
2023-09-29T07:38:19.693Z,5.62
2023-09-29T07:39:23.172Z,5.37
2023-09-29T07:40:26.534Z,5.80
2023-09-29T07:41:29.874Z,5.25
2023-09-29T07:42:32.823Z,5.72
2023-09-29T07:43:35.797Z,5.43
2023-09-29T07:44:39.038Z,5.70
2023-09-29T07:45:42.268Z,5.95
2023-09-29T07:46:47.498Z,5.60
2023-09-29T07:47:50.529Z,5.47
2023-09-29T07:48:53.907Z,5.70
2023-09-29T07:49:57.487Z,5.60
2023-09-29T07:51:01.049Z,5.80
2023-09-29T07:52:04.234Z,5.80
2023-09-29T07:53:07.159Z,5.43
2023-09-29T07:54:10.793Z,5.60
2023-09-29T07:55:14.190Z,5.53
2023-09-29T07:56:17.295Z,5.90
2023-09-29T07:57:20.168Z,5.57
2023-09-29T07:58:23.385Z,5.65
2023-09-29T07:59:26.419Z,5.65
2023-09-29T08:00:29.697Z,5.68
2023-09-29T08:01:33.682Z,5.35
2023-09-29T08:02:36.766Z,5.70
2023-09-29T08:03:40.186Z,5.22
2023-09-29T08:04:43.645Z,4.90
2023-09-29T08:05:47.082Z,5.62
2023-09-29T08:06:50.344Z,5.62
2023-09-29T08:07:53.559Z,5.18
2023-09-29T08:08:56.705Z,5.87
2023-09-29T08:09:59.760Z,5.62
2023-09-29T08:11:03.904Z,5.22
2023-09-29T08:12:07.394Z,5.53
2023-09-29T08:13:10.746Z,5.32
2023-09-29T08:14:14.505Z,5.57
2023-09-29T08:15:18.527Z,5.37
2023-09-29T08:16:22.002Z,5.40
2023-09-29T08:17:27.543Z,5.43
2023-09-29T08:18:30.903Z,5.50
2023-09-29T08:19:35.575Z,5.45
2023-09-29T08:20:38.699Z,5.43
2023-09-29T08:21:41.722Z,5.45
2023-09-29T08:22:46.232Z,5.72
2023-09-29T08:23:50.653Z,5.40
2023-09-29T08:24:54.004Z,5.40
2023-09-29T08:25:57.186Z,5.32
2023-09-29T08:27:02.225Z,5.32
2023-09-29T08:28:05.725Z,5.40
2023-09-29T08:29:11.079Z,5.40
2023-09-29T08:30:14.332Z,5.12
2023-09-29T08:31:18.858Z,5.43
2023-09-29T08:32:22.145Z,5.20
2023-09-29T08:34:37.818Z,4.95
2023-09-29T08:35:41.334Z,5.45
2023-09-29T08:36:44.751Z,5.18
2023-09-29T08:37:48.441Z,5.60
2023-09-29T08:38:51.884Z,5.00
2023-09-29T08:39:55.189Z,5.30
2023-09-29T08:41:00.351Z,5.43
2023-09-29T08:42:18.633Z,5.30
2023-09-29T08:43:22.493Z,5.35
2023-09-29T08:44:29.197Z,5.03
2023-09-29T08:45:32.703Z,5.07
2023-09-29T08:46:38.597Z,5.10
2023-09-29T08:47:42.873Z,4.90
2023-09-29T08:48:48.324Z,5.28
2023-09-29T08:49:51.958Z,5.20
2023-09-29T08:51:02.386Z,5.20
2023-09-29T08:52:06.312Z,5.28
2023-09-29T08:53:12.086Z,4.93
2023-09-29T08:54:18.813Z,5.00
2023-09-29T08:55:25.358Z,5.10
2023-09-29T08:56:29.048Z,5.07
2023-09-29T08:57:32.454Z,5.30
2023-09-29T08:58:36.426Z,5.07
2023-09-29T08:59:41.053Z,4.80
2023-09-29T09:00:47.992Z,5.30
2023-09-29T09:01:56.801Z,4.87
2023-09-29T09:03:02.887Z,5.22
2023-09-29T09:04:06.620Z,4.80
2023-09-29T09:05:13.690Z,5.30
2023-09-29T09:06:25.675Z,4.97
2023-09-29T09:07:28.873Z,4.90
2023-09-29T09:08:32.857Z,4.87
2023-09-29T09:09:37.474Z,4.90
2023-09-29T09:10:42.434Z,5.00
2023-09-29T09:11:45.525Z,4.93
2023-09-29T09:12:48.877Z,4.90
2023-09-29T09:14:05.091Z,5.20
2023-09-29T09:15:12.025Z,4.78
2023-09-29T09:16:15.922Z,4.57
2023-09-29T09:17:19.076Z,4.93
2023-09-29T09:18:22.836Z,4.47
2023-09-29T09:19:26.387Z,4.82
2023-09-29T09:20:30.740Z,5.10
2023-09-29T09:21:34.435Z,4.65
2023-09-29T09:23:46.746Z,4.90
2023-09-29T09:24:50.279Z,4.95
2023-09-29T09:25:55.662Z,4.75
2023-09-29T09:27:02.808Z,4.90
2023-09-29T09:28:07.546Z,4.87
2023-09-29T09:29:11.129Z,4.60
2023-09-29T09:30:26.433Z,4.20
2023-09-29T09:31:30.084Z,4.43
2023-09-29T09:32:35.614Z,4.72
2023-09-29T09:33:39.340Z,4.43
2023-09-29T09:34:45.763Z,4.85
2023-09-29T09:35:52.692Z,5.15
2023-09-29T09:36:57.144Z,4.78
2023-09-29T09:38:04.319Z,4.65
2023-09-29T09:39:11.945Z,4.87
2023-09-29T09:40:16.706Z,4.40
2023-09-29T09:41:20.528Z,4.55
2023-09-29T09:42:28.043Z,5.03
2023-09-29T09:43:31.070Z,4.90
2023-09-29T09:44:35.734Z,4.40
2023-09-29T09:45:41.467Z,4.78
2023-09-29T09:46:54.503Z,4.95
2023-09-29T09:48:01.291Z,4.50
2023-09-29T09:49:11.157Z,4.40
2023-09-29T09:50:15.988Z,4.60
2023-09-29T09:51:33.163Z,4.60
2023-09-29T09:52:36.656Z,4.60
2023-09-29T09:53:40.414Z,4.82
2023-09-29T09:54:49.927Z,4.40
2023-09-29T09:55:57.497Z,4.55
2023-09-29T09:57:10.534Z,4.72
2023-09-29T09:58:18.262Z,4.80
2023-09-29T09:59:22.106Z,4.43
2023-09-29T10:00:26.140Z,4.90
2023-09-29T10:01:29.517Z,4.22
2023-09-29T10:02:34.754Z,4.03
2023-09-29T10:03:40.213Z,4.82
2023-09-29T10:04:44.792Z,4.47
2023-09-29T10:05:54.624Z,4.47
2023-09-29T10:07:00.667Z,4.25
2023-09-29T10:08:04.598Z,4.82
2023-09-29T10:09:12.996Z,4.97
2023-09-29T10:10:43.092Z,4.78
2023-09-29T10:11:49.077Z,4.50
2023-09-29T10:12:56.708Z,4.37
2023-09-29T10:14:04.541Z,4.60
2023-09-29T10:15:16.391Z,4.37
2023-09-29T10:16:26.582Z,4.70
2023-09-29T10:19:00.404Z,5.03
2023-09-29T10:20:05.978Z,4.40
2023-09-29T10:21:11.050Z,4.68
2023-09-29T10:22:24.713Z,4.65
2023-09-29T10:23:28.661Z,4.53
2023-09-29T10:24:32.575Z,4.18
2023-09-29T10:25:40.376Z,4.57
2023-09-29T10:26:49.917Z,4.78
2023-09-29T10:28:03.055Z,4.55
2023-09-29T10:29:10.532Z,4.70
2023-09-29T10:30:19.728Z,4.47
2023-09-29T10:31:31.508Z,4.62
2023-09-29T10:32:34.572Z,4.82
2023-09-29T10:33:55.076Z,4.40
2023-09-29T10:35:08.991Z,4.60
2023-09-29T10:36:14.046Z,4.35
2023-09-29T10:37:17.209Z,4.50
2023-09-29T10:38:32.098Z,4.30
2023-09-29T10:39:37.338Z,4.28
2023-09-29T10:40:40.629Z,4.60
2023-09-29T10:41:43.924Z,5.10
2023-09-29T10:42:47.727Z,4.70
2023-09-29T10:43:51.921Z,4.20
2023-09-29T10:44:57.161Z,4.80
2023-09-29T10:46:08.837Z,4.60
2023-09-29T10:47:15.724Z,4.78
2023-09-29T10:48:28.435Z,4.75
2023-09-29T10:49:33.512Z,4.53
2023-09-29T10:50:43.988Z,4.45
2023-09-29T10:51:47.747Z,4.62
2023-09-29T10:52:51.041Z,4.90
2023-09-29T10:54:03.213Z,4.85
2023-09-29T10:55:06.837Z,4.55
2023-09-29T10:56:10.598Z,4.47
2023-09-29T10:57:20.542Z,4.45
2023-09-29T10:58:23.704Z,4.93
2023-09-29T10:59:27.712Z,4.12
2023-09-29T11:00:30.829Z,4.30
2023-09-29T11:01:35.613Z,4.32
2023-09-29T11:02:39.283Z,4.07
2023-09-29T11:03:42.444Z,4.30
2023-09-29T11:04:48.863Z,4.40
2023-09-29T11:05:59.506Z,3.97
2023-09-29T11:07:04.226Z,4.30
2023-09-29T11:08:12.260Z,4.03
2023-09-29T11:09:24.806Z,3.83
2023-09-29T11:10:27.778Z,4.43
2023-09-29T11:11:38.224Z,4.25
2023-09-29T11:12:45.354Z,4.20
2023-09-29T11:13:59.090Z,4.15
2023-09-29T11:15:09.682Z,4.50
2023-09-29T11:16:18.436Z,4.18
2023-09-29T11:17:21.806Z,4.40
2023-09-29T11:18:35.025Z,4.35
2023-09-29T11:19:38.458Z,4.62
2023-09-29T11:20:55.862Z,4.40
2023-09-29T11:22:01.100Z,4.50
2023-09-29T11:23:09.054Z,4.53
2023-09-29T11:24:15.137Z,4.00
2023-09-29T11:25:21.348Z,4.50
2023-09-29T11:26:25.220Z,4.53
2023-09-29T11:27:31.705Z,4.75
2023-09-29T11:28:41.383Z,4.53
2023-09-29T11:29:45.724Z,4.93
2023-09-29T11:30:49.977Z,4.43
2023-09-29T11:31:55.097Z,4.80
2023-09-29T11:32:58.487Z,4.70
2023-09-29T11:34:01.965Z,4.50
2023-09-29T11:35:15.113Z,4.93
2023-09-29T11:36:20.625Z,4.90
2023-09-29T11:37:24.279Z,4.62
2023-09-29T11:38:28.012Z,4.47
2023-09-29T11:39:31.494Z,4.60
2023-09-29T11:40:35.299Z,4.50
2023-09-29T11:41:39.752Z,4.55
2023-09-29T11:42:45.907Z,4.30
2023-09-29T11:43:50.237Z,4.50
2023-09-29T11:44:53.627Z,3.97
2023-09-29T11:45:57.591Z,4.70
2023-09-29T11:47:00.626Z,4.45
2023-09-29T11:48:04.261Z,4.10
2023-09-29T11:49:08.811Z,4.78
2023-09-29T11:50:13.132Z,4.20
2023-09-29T11:51:16.339Z,4.40
2023-09-29T11:52:19.606Z,3.95
2023-09-29T11:53:23.060Z,4.68
2023-09-29T11:54:26.312Z,4.18
2023-09-29T11:55:29.330Z,4.15
2023-09-29T11:56:32.885Z,4.25
2023-09-29T11:57:38.708Z,4.35
2023-09-29T11:58:42.002Z,4.28
2023-09-29T11:59:45.197Z,4.07
2023-09-29T12:00:49.370Z,4.35
2023-09-29T12:01:53.585Z,4.28
2023-09-29T12:02:57.523Z,4.28
2023-09-29T12:04:00.828Z,3.95
2023-09-29T12:05:09.482Z,4.03
2023-09-29T12:06:12.603Z,4.45
2023-09-29T12:07:15.874Z,4.12
2023-09-29T12:08:20.907Z,4.62
2023-09-29T12:09:24.288Z,4.55
2023-09-29T12:10:30.120Z,4.30
2023-09-29T12:11:33.338Z,3.92
2023-09-29T12:12:36.196Z,4.50
2023-09-29T12:13:41.082Z,4.40
2023-09-29T12:14:43.984Z,4.22
2023-09-29T12:15:47.893Z,4.50
2023-09-29T12:16:51.374Z,4.07
2023-09-29T12:17:55.281Z,4.45
2023-09-29T12:18:58.691Z,4.45
2023-09-29T12:20:01.996Z,4.15
2023-09-29T12:21:13.375Z,4.57
2023-09-29T12:22:16.812Z,4.50
2023-09-29T12:23:20.204Z,4.37
2023-09-29T12:24:23.439Z,4.10
2023-09-29T12:25:26.403Z,4.15
2023-09-29T12:26:29.707Z,4.35
2023-09-29T12:27:33.106Z,4.60
2023-09-29T12:28:37.202Z,4.30
2023-09-29T12:29:40.625Z,4.20
2023-09-29T12:30:47.322Z,4.78
2023-09-29T12:31:51.309Z,4.37
2023-09-29T12:32:54.230Z,4.10
2023-09-29T12:33:58.161Z,4.28
2023-09-29T12:35:01.249Z,4.60
2023-09-29T12:36:04.958Z,3.97
2023-09-29T12:37:09.402Z,3.87
2023-09-29T12:38:12.577Z,4.05
2023-09-29T12:39:15.933Z,4.32
2023-09-29T12:40:18.907Z,3.80
2023-09-29T12:41:21.795Z,4.43
2023-09-29T12:42:24.666Z,4.10
2023-09-29T12:43:27.596Z,4.85
2023-09-29T12:44:30.800Z,4.20
2023-09-29T12:45:34.306Z,4.53
2023-09-29T12:46:38.274Z,4.70
2023-09-29T12:47:42.995Z,4.18
2023-09-29T12:48:46.218Z,4.20
2023-09-29T12:49:49.237Z,4.18
2023-09-29T12:50:52.573Z,4.20
2023-09-29T12:52:01.752Z,4.32
2023-09-29T12:53:05.850Z,4.28
2023-09-29T12:54:08.984Z,4.20
2023-09-29T12:55:16.700Z,3.97
2023-09-29T12:56:20.212Z,4.10
2023-09-29T12:57:23.274Z,4.25
2023-09-29T12:58:26.456Z,4.00
2023-09-29T12:59:31.031Z,4.50
2023-09-29T13:00:37.283Z,4.30
2023-09-29T13:01:40.964Z,4.30
2023-09-29T13:02:44.412Z,4.37
2023-09-29T13:03:47.389Z,4.10
2023-09-29T13:04:50.919Z,4.18
2023-09-29T13:06:01.566Z,4.20
2023-09-29T13:07:07.583Z,4.55
2023-09-29T13:08:12.130Z,4.47
2023-09-29T13:09:17.380Z,4.03
2023-09-29T13:10:21.123Z,4.37
2023-09-29T13:11:24.553Z,4.37
2023-09-29T13:12:31.561Z,4.22
2023-09-29T13:13:35.052Z,4.12
2023-09-29T13:14:38.343Z,4.10
2023-09-29T13:15:42.742Z,4.40
2023-09-29T13:16:46.313Z,4.57
2023-09-29T13:17:51.238Z,4.32
2023-09-29T13:18:54.478Z,4.28
2023-09-29T13:19:57.782Z,4.53
2023-09-29T13:21:01.050Z,4.60
2023-09-29T13:22:04.013Z,4.07
2023-09-29T13:23:08.281Z,4.30
2023-09-29T13:24:13.305Z,4.90
2023-09-29T13:25:16.706Z,4.60
2023-09-29T13:26:19.964Z,4.07
2023-09-29T13:27:23.311Z,4.47
2023-09-29T13:28:28.849Z,4.20
2023-09-29T13:29:32.111Z,4.97
2023-09-29T13:30:47.699Z,4.70
2023-09-29T13:31:57.792Z,4.45
2023-09-29T13:33:01.276Z,4.45
2023-09-29T13:34:05.198Z,4.50
2023-09-29T13:35:09.745Z,4.62
2023-09-29T13:36:12.997Z,4.45
2023-09-29T13:37:18.669Z,4.60
2023-09-29T13:38:23.910Z,4.50
2023-09-29T13:39:28.306Z,4.35
2023-09-29T13:40:32.071Z,4.47
2023-09-29T13:41:37.289Z,4.72
2023-09-29T13:42:40.171Z,4.40
2023-09-29T13:43:44.665Z,4.45
2023-09-29T13:44:47.573Z,4.75
2023-09-29T13:45:51.446Z,5.07
2023-09-29T13:47:03.919Z,4.30
2023-09-29T13:48:08.091Z,4.43
2023-09-29T13:49:11.392Z,4.55
2023-09-29T13:50:17.881Z,4.53
2023-09-29T13:51:21.243Z,4.65
2023-09-29T13:52:25.183Z,4.40
2023-09-29T13:53:28.185Z,4.32
2023-09-29T13:54:31.202Z,4.97
2023-09-29T13:55:34.205Z,4.37
2023-09-29T13:56:37.519Z,4.80
2023-09-29T13:57:40.775Z,4.62
2023-09-29T13:58:43.848Z,4.70
2023-09-29T13:59:47.316Z,4.43
2023-09-29T14:00:53.086Z,4.60
2023-09-29T14:01:56.499Z,4.47
2023-09-29T14:03:02.861Z,4.70
2023-09-29T14:04:08.383Z,4.82
2023-09-29T14:05:13.025Z,4.43
2023-09-29T14:06:17.527Z,4.37
2023-09-29T14:07:20.942Z,4.78
2023-09-29T14:08:24.547Z,4.40
2023-09-29T14:09:28.009Z,4.70
2023-09-29T14:10:32.714Z,4.40
2023-09-29T14:11:35.992Z,4.40
2023-09-29T14:12:39.993Z,4.68
2023-09-29T14:13:43.304Z,4.70
2023-09-29T14:14:48.901Z,4.43
2023-09-29T14:15:51.912Z,4.10
2023-09-29T14:16:55.021Z,4.90
2023-09-29T14:17:58.705Z,5.12
2023-09-29T14:19:01.727Z,4.80
2023-09-29T14:20:07.526Z,5.00
2023-09-29T14:21:11.063Z,4.85
2023-09-29T14:22:14.125Z,4.90
2023-09-29T14:23:17.411Z,4.60